Montrose Regional Airport
KMTJ : now visible

Airfield :











YOU CAN JOIN US ON...

 
LOGIN :

Register | Disclaimer

   EN    FR    IT 

 









Legend :    VFR   Marginal VFR   IFR   Intensive IFR   Very Intensive IFR
Visi :
Ceiling :
>= 8 km
>= 3000ft
5 to 8 km
1000 to 3000 ft
1500m to 5 km
500 to 1000 ft
800 to 1500m
200 to 500 ft
< 800m
< 200 ft
Symbols :   Thunderstorms  Fog  Heavy snow  Heavy precipitations  Wind > 20 kt






- Airport Elevation : 5759 ft


KMTJ - Montrose Regional

CURRENT METAR :
  • 011453Z AUTO 16007KT 10SM CLR M16/M18 A3031 RMK AO2 SLP336 T11561183 53011

EXPIRED METARs :
  • 011353Z AUTO 18007KT 10SM CLR M16/M19 A3029 RMK AO2 SLP333 T11611189
  • 011253Z AUTO 16006KT 10SM CLR M17/M19 A3028 RMK AO2 SLP316 T11671194
  • 011153Z AUTO 16008KT 10SM CLR M16/M19 A3027 RMK AO2 SLP303 T11611189 11133 21167 56002

TAF KMTJ
Valid from the 01 at 12:00 until the 02 at 12:00 UTC


011120Z 0112/0212 16007KT P6SM SKC
FM011600 VRB04KT P6SM SKC
FM020000 14006KT P6SM SKC
KZDV FIR / North America



MET'MAP, your aeronautical weather chart ! - Copyright ORBIFLY December 2007 - Disclaimer

ORBIFLY MET'MAP TEAM :

Programming & Development : Alexandra Zaïnal
Original concept : Baudouin d'Aumeries
Technical & hardware support : Manuel Goepfert
Assistance : Marc-Olivier Méhu




SOURCES & CREDITS :

   NOAA       Earth
Advisory